createdAt,value
2023-10-23T00:03:02.798Z,15.6
2023-10-23T00:08:40.188Z,15.5
2023-10-23T00:14:16.120Z,15.5
2023-10-23T00:19:51.295Z,15.5
2023-10-23T00:25:26.995Z,15.5
2023-10-23T00:31:02.715Z,15.5
2023-10-23T00:36:39.300Z,15.4
2023-10-23T00:42:15.283Z,15.4
2023-10-23T00:47:51.987Z,15.4
2023-10-23T00:53:28.421Z,15.3
2023-10-23T00:59:06.960Z,15.3
2023-10-23T01:04:42.137Z,15.3
2023-10-23T01:10:17.097Z,15.3
2023-10-23T01:15:52.489Z,15.3
2023-10-23T01:21:28.898Z,15.3
2023-10-23T01:27:04.377Z,15.2
2023-10-23T01:32:40.117Z,15.2
2023-10-23T01:38:16.507Z,15.2
2023-10-23T01:43:51.891Z,15.2
2023-10-23T01:49:27.373Z,15.2
2023-10-23T01:55:03.472Z,15.2
2023-10-23T02:00:39.462Z,15.1
2023-10-23T02:06:15.869Z,15.1
2023-10-23T02:11:52.907Z,15.1
2023-10-23T02:17:28.884Z,15.1
2023-10-23T02:23:05.646Z,15.1
2023-10-23T02:28:41.009Z,15.1
2023-10-23T02:34:16.747Z,15
2023-10-23T02:39:52.505Z,15
2023-10-23T02:45:28.553Z,15
2023-10-23T02:51:04.333Z,15
2023-10-23T02:56:39.814Z,15
2023-10-23T03:02:15.575Z,15
2023-10-23T03:07:50.675Z,14.9
2023-10-23T03:13:25.768Z,14.9
2023-10-23T03:19:01.494Z,14.9
2023-10-23T03:24:37.456Z,14.9
2023-10-23T03:30:13.728Z,14.8
2023-10-23T03:35:49.565Z,14.8
2023-10-23T03:41:25.088Z,14.8
2023-10-23T03:47:01.205Z,14.8
2023-10-23T03:52:37.218Z,14.7
2023-10-23T03:58:12.354Z,14.7
2023-10-23T04:03:47.817Z,14.7
2023-10-23T04:09:25.267Z,14.7
2023-10-23T04:15:01.615Z,14.7
2023-10-23T04:20:37.646Z,14.7
2023-10-23T04:26:12.883Z,14.6
2023-10-23T04:31:48.346Z,14.6
2023-10-23T04:37:24.423Z,14.6
2023-10-23T04:43:00.488Z,14.6
2023-10-23T04:48:37.127Z,14.6
2023-10-23T04:54:13.222Z,14.6
2023-10-23T04:59:48.527Z,14.6
2023-10-23T05:05:23.818Z,14.6
2023-10-23T05:10:58.907Z,14.6
2023-10-23T05:16:35.033Z,14.6
2023-10-23T05:22:11.463Z,14.6
2023-10-23T05:27:48.047Z,14.6
2023-10-23T05:33:25.142Z,14.6
2023-10-23T05:39:01.099Z,14.6
2023-10-23T05:44:36.989Z,14.6
2023-10-23T05:50:13.030Z,14.6
2023-10-23T05:55:48.884Z,14.6
2023-10-23T06:01:24.949Z,14.6
2023-10-23T06:07:01.716Z,14.6
2023-10-23T06:12:38.854Z,14.6
2023-10-23T06:18:14.675Z,14.6
2023-10-23T06:23:50.268Z,13.9
2023-10-23T06:29:25.421Z,13.6
2023-10-23T06:35:00.757Z,13.3
2023-10-23T06:40:36.066Z,13.5
2023-10-23T06:46:12.095Z,13.4
2023-10-23T06:51:47.799Z,13.2
2023-10-23T06:57:24.048Z,13.2
2023-10-23T07:02:59.987Z,13.2
2023-10-23T07:08:36.258Z,13.1
2023-10-23T07:14:12.120Z,13.2
2023-10-23T07:19:48.210Z,13.2
2023-10-23T07:25:23.780Z,13.1
2023-10-23T07:30:59.883Z,13.2
2023-10-23T07:36:35.598Z,13.2
2023-10-23T07:42:13.291Z,13.3
2023-10-23T07:47:48.374Z,13.4
2023-10-23T07:53:24.521Z,13.5
2023-10-23T07:58:59.560Z,13.6
2023-10-23T08:04:35.263Z,13.7
2023-10-23T08:10:12.288Z,14
2023-10-23T08:15:50.077Z,14.1
2023-10-23T08:21:36.392Z,14
2023-10-23T08:27:12.040Z,14
2023-10-23T08:32:52.677Z,14
2023-10-23T08:38:30.955Z,14.1
2023-10-23T08:44:06.440Z,14.1
2023-10-23T08:49:41.676Z,14.3
2023-10-23T08:55:17.848Z,14.7
2023-10-23T09:00:54.551Z,15.1
2023-10-23T09:06:31.032Z,15
2023-10-23T09:12:07.378Z,15.5
2023-10-23T09:17:42.852Z,15.1
2023-10-23T09:23:18.760Z,15.7
2023-10-23T09:28:55.361Z,16.1
2023-10-23T09:34:32.743Z,16.2
2023-10-23T09:40:07.980Z,16.2
2023-10-23T09:45:44.477Z,16.2
2023-10-23T09:51:20.016Z,16
2023-10-23T09:56:55.567Z,16.3
2023-10-23T10:02:31.306Z,16
2023-10-23T10:08:06.804Z,16.5
2023-10-23T10:13:42.681Z,16.6
2023-10-23T10:19:18.690Z,17.1
2023-10-23T10:24:54.699Z,17.3
2023-10-23T10:30:30.744Z,16.7
2023-10-23T10:36:06.868Z,16
2023-10-23T10:41:43.532Z,16.4
2023-10-23T10:47:19.734Z,17.1
2023-10-23T10:52:56.245Z,17.1
2023-10-23T10:58:31.586Z,16.9
2023-10-23T11:04:07.325Z,17.2
2023-10-23T11:09:44.616Z,17.4
2023-10-23T11:15:20.418Z,17.4
2023-10-23T11:20:55.643Z,17.4
2023-10-23T11:26:31.290Z,17.7
2023-10-23T11:32:06.798Z,17.8
2023-10-23T11:37:42.999Z,18.2
2023-10-23T11:43:19.197Z,18.4
2023-10-23T11:48:56.569Z,18.6
2023-10-23T11:54:32.410Z,18.8
2023-10-23T12:00:10.497Z,19
2023-10-23T12:05:46.314Z,19.3
2023-10-23T12:11:22.928Z,19.4
2023-10-23T12:16:58.667Z,19.9
2023-10-23T12:22:35.800Z,20.1
2023-10-23T12:28:11.132Z,20.5
2023-10-23T12:33:47.329Z,20.8
2023-10-23T12:39:24.759Z,21.1
2023-10-23T12:45:00.256Z,21.3
2023-10-23T12:50:36.160Z,21.6
2023-10-23T12:56:11.851Z,21.8
2023-10-23T13:01:47.384Z,21.8
2023-10-23T13:07:22.971Z,22
2023-10-23T13:13:00.091Z,22.3
2023-10-23T13:18:37.663Z,22.5
2023-10-23T13:24:29.664Z,23
2023-10-23T13:30:04.974Z,23.3
2023-10-23T13:35:40.721Z,24.1
2023-10-23T13:41:18.626Z,25.1
2023-10-23T13:46:53.992Z,26.6
2023-10-23T13:52:30.958Z,28.6
2023-10-23T13:58:06.855Z,33.7
2023-10-23T14:03:42.717Z,36.5
2023-10-23T14:09:40.028Z,36.4
2023-10-23T14:15:28.191Z,38
2023-10-23T14:21:03.309Z,37.9
2023-10-23T14:26:39.101Z,35.7
2023-10-23T14:32:15.555Z,35.3
2023-10-23T14:37:52.165Z,35.5
2023-10-23T14:43:27.989Z,37.4
2023-10-23T14:49:04.865Z,36.1
2023-10-23T14:54:40.776Z,29.4
2023-10-23T15:00:15.642Z,25.2
2023-10-23T15:05:51.684Z,24.3
2023-10-23T15:11:27.239Z,23.5
2023-10-23T15:17:02.969Z,22.8
2023-10-23T15:22:39.491Z,22.4
2023-10-23T15:28:15.302Z,21.6
2023-10-23T15:33:51.329Z,21
2023-10-23T15:39:27.379Z,20.8
2023-10-23T15:45:02.828Z,20.7
2023-10-23T15:50:38.023Z,20.4
2023-10-23T15:56:13.798Z,20.3
2023-10-23T16:01:48.883Z,20.3
2023-10-23T16:07:25.651Z,19.9
2023-10-23T16:13:02.930Z,19.5
2023-10-23T16:18:38.316Z,19.3
2023-10-23T16:24:13.545Z,18.9
2023-10-23T16:29:50.564Z,18.7
2023-10-23T16:35:25.847Z,18.4
2023-10-23T16:41:01.599Z,18.2
2023-10-23T16:46:37.553Z,17.8
2023-10-23T16:52:14.133Z,17.7
2023-10-23T16:57:50.216Z,17.5
2023-10-23T17:03:26.579Z,17.4
2023-10-23T17:09:02.993Z,17.2
2023-10-23T17:14:38.082Z,17
2023-10-23T17:20:13.563Z,16.9
2023-10-23T17:25:49.766Z,16.9
2023-10-23T17:31:25.517Z,17
2023-10-23T17:37:01.984Z,17.5
2023-10-23T17:42:38.721Z,17.7
2023-10-23T17:48:14.055Z,17.8
2023-10-23T17:59:41.671Z,17.8
2023-10-23T18:05:16.765Z,17.8
2023-10-23T18:10:52.263Z,17.8
2023-10-23T18:16:28.012Z,17.8
2023-10-23T18:22:05.008Z,17.8
2023-10-23T18:27:40.961Z,17.8
2023-10-23T18:33:16.036Z,17.8
2023-10-23T18:38:51.623Z,17.7
2023-10-23T18:44:27.723Z,17.7
2023-10-23T18:50:03.607Z,17.6
2023-10-23T18:55:39.097Z,17.6
2023-10-23T19:01:16.279Z,17.5
2023-10-23T19:06:53.568Z,17.5
2023-10-23T19:12:29.411Z,17.4
2023-10-23T19:18:04.568Z,17.4
2023-10-23T19:23:41.285Z,17.3
2023-10-23T19:29:16.458Z,17.3
2023-10-23T19:34:51.860Z,17.3
2023-10-23T19:40:27.362Z,17.3
2023-10-23T19:46:03.269Z,17.3
2023-10-23T19:51:39.616Z,17.3
2023-10-23T19:57:14.729Z,17.3
2023-10-23T20:02:50.218Z,17.2
2023-10-23T20:08:26.368Z,17.2
2023-10-23T20:14:01.867Z,17.2
2023-10-23T20:19:36.936Z,17.1
2023-10-23T20:25:14.691Z,17.1
2023-10-23T20:30:50.744Z,17.1
2023-10-23T20:36:26.417Z,17.1
2023-10-23T20:42:02.406Z,17
2023-10-23T20:47:37.574Z,17
2023-10-23T20:53:13.481Z,17
2023-10-23T20:58:48.726Z,17
2023-10-23T21:04:24.317Z,17
2023-10-23T21:10:00.148Z,17
2023-10-23T21:15:36.244Z,17
2023-10-23T21:21:11.871Z,16.9
2023-10-23T21:26:46.821Z,16.9
2023-10-23T21:32:22.768Z,16.9
2023-10-23T21:37:59.102Z,16.9
2023-10-23T21:43:34.425Z,16.9
2023-10-23T21:49:11.327Z,16.9
2023-10-23T21:54:47.583Z,16.9
2023-10-23T22:00:24.456Z,16.8
2023-10-23T22:06:02.261Z,16.8
2023-10-23T22:11:37.590Z,16.8
2023-10-23T22:17:12.860Z,16.8
2023-10-23T22:22:49.953Z,16.8
2023-10-23T22:28:25.973Z,16.8
2023-10-23T22:34:01.921Z,16.7
2023-10-23T22:39:38.031Z,16.7
2023-10-23T22:45:13.272Z,16.7
2023-10-23T22:50:48.992Z,16.7
2023-10-23T22:56:24.709Z,16.7
2023-10-23T23:02:00.198Z,16.7
2023-10-23T23:07:37.131Z,16.7
2023-10-23T23:13:13.510Z,16.7
2023-10-23T23:18:49.883Z,16.6
2023-10-23T23:24:25.106Z,16.6
2023-10-23T23:30:00.991Z,16.6
2023-10-23T23:35:36.329Z,16.5
2023-10-23T23:41:11.609Z,16.5
2023-10-23T23:46:46.835Z,16.5
2023-10-23T23:52:23.757Z,16.5
2023-10-23T23:57:59.829Z,16.4
